createdAt,value
2024-03-08T00:01:25.301Z,0.00
2024-03-08T00:04:22.403Z,0.10
2024-03-08T00:07:19.262Z,0.10
2024-03-08T00:10:16.482Z,0.00
2024-03-08T00:13:13.457Z,-0.10
2024-03-08T00:16:10.700Z,-0.10
2024-03-08T00:19:07.560Z,-0.20
2024-03-08T00:22:04.406Z,-0.30
2024-03-08T00:25:01.261Z,-0.20
2024-03-08T00:27:58.302Z,-0.30
2024-03-08T00:30:55.146Z,-0.30
2024-03-08T00:33:53.746Z,-0.30
2024-03-08T00:36:51.453Z,-0.20
2024-03-08T00:39:49.025Z,-0.20
2024-03-08T00:42:45.875Z,-0.30
2024-03-08T00:45:43.764Z,-0.20
2024-03-08T00:48:44.405Z,-0.20
2024-03-08T00:51:41.269Z,-0.20
2024-03-08T00:54:38.134Z,-0.20
2024-03-08T00:57:35.005Z,-0.20
2024-03-08T01:00:32.150Z,-0.30
2024-03-08T01:03:29.119Z,-0.20
2024-03-08T01:06:26.056Z,-0.20
2024-03-08T01:09:24.250Z,-0.20
2024-03-08T01:12:21.393Z,-0.20
2024-03-08T01:15:18.456Z,-0.10
2024-03-08T01:18:15.405Z,-0.20
2024-03-08T01:21:12.371Z,-0.30
2024-03-08T01:24:09.256Z,-0.30
2024-03-08T01:27:06.240Z,-0.30
2024-03-08T01:30:03.747Z,-0.30
2024-03-08T01:33:01.597Z,-0.30
2024-03-08T01:35:59.467Z,-0.30
2024-03-08T01:38:56.415Z,-0.30
2024-03-08T01:41:55.414Z,-0.30
2024-03-08T01:44:52.710Z,-0.30
2024-03-08T01:47:49.982Z,-0.40
2024-03-08T01:50:47.387Z,-0.40
2024-03-08T01:53:47.282Z,-0.40
2024-03-08T01:56:44.400Z,-0.40
2024-03-08T01:59:42.910Z,-0.40
2024-03-08T02:02:45.431Z,-0.60
2024-03-08T02:05:42.942Z,-0.60
2024-03-08T02:08:39.939Z,-0.50
2024-03-08T02:25:26.217Z,-0.40
2024-03-08T02:28:23.896Z,-0.40
2024-03-08T02:31:20.759Z,-0.40
2024-03-08T02:34:17.634Z,-0.30
2024-03-08T02:37:14.505Z,-0.40
2024-03-08T02:40:13.659Z,-0.40
2024-03-08T02:43:11.871Z,-0.50
2024-03-08T02:46:08.769Z,-0.60
2024-03-08T02:49:05.632Z,-0.50
2024-03-08T02:52:02.807Z,-0.40
2024-03-08T02:54:59.636Z,-0.60
2024-03-08T02:57:57.248Z,-0.60
2024-03-08T03:00:54.193Z,-0.60
2024-03-08T03:03:51.048Z,-0.60
2024-03-08T03:06:47.909Z,-0.60
2024-03-08T03:09:44.832Z,-0.60
2024-03-08T03:12:41.690Z,-0.50
2024-03-08T03:15:38.632Z,-0.50
2024-03-08T03:18:35.641Z,-0.40
2024-03-08T03:21:33.062Z,-0.60
2024-03-08T03:24:30.830Z,-0.60
2024-03-08T03:27:27.747Z,-0.50
2024-03-08T03:30:28.162Z,-0.50
2024-03-08T03:33:25.114Z,-0.40
2024-03-08T03:36:22.038Z,-0.50
2024-03-08T03:39:21.180Z,-0.50
2024-03-08T03:42:19.048Z,-0.50
2024-03-08T03:45:20.938Z,-0.60
2024-03-08T03:48:17.864Z,-0.50
2024-03-08T03:51:16.747Z,-0.50
2024-03-08T03:54:14.392Z,-0.50
2024-03-08T03:57:11.401Z,-0.40
2024-03-08T04:00:12.166Z,-0.40
2024-03-08T04:03:09.909Z,-0.40
2024-03-08T04:06:07.083Z,-0.50
2024-03-08T04:09:04.225Z,-0.50
2024-03-08T04:12:02.447Z,-0.50
2024-03-08T04:14:59.635Z,-0.40
2024-03-08T04:17:56.568Z,-0.40
2024-03-08T04:20:53.541Z,-0.40
2024-03-08T04:23:50.561Z,-0.40
2024-03-08T04:26:48.690Z,-0.50
2024-03-08T04:29:45.647Z,-0.50
2024-03-08T04:32:43.837Z,-0.50
2024-03-08T04:35:40.939Z,-0.60
2024-03-08T04:38:37.958Z,-0.50
2024-03-08T04:41:35.405Z,-0.70
2024-03-08T04:44:32.798Z,-0.70
2024-03-08T04:47:29.927Z,-0.80
2024-03-08T04:50:29.762Z,-0.70
2024-03-08T04:53:26.660Z,-0.70
2024-03-08T04:56:23.621Z,-0.70
2024-03-08T04:59:20.454Z,-0.70
2024-03-08T05:02:18.482Z,-0.80
2024-03-08T05:05:16.377Z,-0.90
2024-03-08T05:08:13.302Z,-0.90
2024-03-08T05:11:10.781Z,-1.00
2024-03-08T05:14:07.783Z,-1.10
2024-03-08T05:17:08.001Z,-1.00
2024-03-08T05:20:08.506Z,-0.90
2024-03-08T05:23:06.497Z,-1.00
2024-03-08T05:26:03.392Z,-1.00
2024-03-08T05:29:00.382Z,-1.00
2024-03-08T05:31:58.951Z,-0.90
2024-03-08T05:34:55.910Z,-0.90
2024-03-08T05:37:52.794Z,-0.80
2024-03-08T05:40:50.191Z,-0.80
2024-03-08T05:43:47.140Z,-0.80
2024-03-08T05:46:44.058Z,-0.80
2024-03-08T05:49:40.944Z,-0.80
2024-03-08T05:52:39.695Z,-0.80
2024-03-08T05:55:36.562Z,-0.70
2024-03-08T05:58:33.499Z,-0.70
2024-03-08T06:01:31.705Z,-0.80
2024-03-08T06:04:28.611Z,-0.80
2024-03-08T06:07:25.566Z,-0.70
2024-03-08T06:10:22.482Z,-0.70
2024-03-08T06:13:19.357Z,-0.70
2024-03-08T06:16:16.443Z,-0.80
2024-03-08T06:19:13.877Z,-0.70
2024-03-08T06:22:10.815Z,-0.70
2024-03-08T06:25:15.035Z,-0.80
2024-03-08T06:28:12.136Z,-0.60
2024-03-08T06:31:09.280Z,-0.70
2024-03-08T06:34:09.079Z,-0.80
2024-03-08T06:37:06.188Z,-0.60
2024-03-08T06:40:09.031Z,-0.60
2024-03-08T06:43:06.975Z,-0.60
2024-03-08T06:46:04.997Z,-0.50
2024-03-08T06:49:01.951Z,-0.40
2024-03-08T06:51:58.842Z,-0.40
2024-03-08T06:54:55.740Z,-0.30
2024-03-08T06:57:52.641Z,-0.20
2024-03-08T07:00:53.190Z,-0.10
2024-03-08T07:03:50.076Z,-0.10
2024-03-08T07:06:46.934Z,-0.10
2024-03-08T07:09:46.939Z,0.00
2024-03-08T07:12:43.798Z,0.00
2024-03-08T07:15:40.990Z,0.00
2024-03-08T07:18:41.151Z,0.10
2024-03-08T07:21:38.367Z,0.30
2024-03-08T07:24:36.869Z,0.50
2024-03-08T07:27:35.492Z,0.70
2024-03-08T07:30:47.190Z,0.80
2024-03-08T07:33:44.637Z,0.90
2024-03-08T07:36:41.654Z,1.00
2024-03-08T07:39:40.281Z,1.10
2024-03-08T07:42:38.428Z,1.10
2024-03-08T07:45:37.019Z,1.20
2024-03-08T07:48:34.190Z,1.20
2024-03-08T07:51:31.735Z,1.30
2024-03-08T07:54:28.682Z,1.40
2024-03-08T07:57:27.080Z,1.40
2024-03-08T08:00:25.374Z,1.50
2024-03-08T08:03:22.360Z,1.50
2024-03-08T08:06:19.388Z,1.70
2024-03-08T08:09:16.293Z,1.80
2024-03-08T08:12:13.295Z,1.90
2024-03-08T08:15:10.359Z,1.80
2024-03-08T08:18:08.107Z,2.00
2024-03-08T08:21:07.384Z,2.30
2024-03-08T08:24:05.213Z,2.30
2024-03-08T08:27:02.110Z,2.40
2024-03-08T08:29:59.002Z,2.30
2024-03-08T08:32:56.404Z,2.10
2024-03-08T08:35:55.012Z,2.30
2024-03-08T08:38:52.042Z,2.30
2024-03-08T08:41:48.898Z,2.30
2024-03-08T08:44:45.922Z,2.60
2024-03-08T08:47:43.944Z,3.50
2024-03-08T08:50:41.027Z,5.20
2024-03-08T08:53:40.059Z,6.20
2024-03-08T08:56:36.944Z,7.30
2024-03-08T08:59:33.789Z,6.60
2024-03-08T09:02:30.875Z,7.20
2024-03-08T09:05:27.888Z,7.30
2024-03-08T09:08:26.040Z,7.30
2024-03-08T09:11:23.003Z,7.30
2024-03-08T09:14:21.466Z,8.00
2024-03-08T09:17:21.691Z,8.40
2024-03-08T09:20:18.731Z,8.70
2024-03-08T09:23:17.926Z,8.50
2024-03-08T09:26:23.171Z,8.60
2024-03-08T09:29:25.663Z,9.90
2024-03-08T09:32:23.826Z,9.00
2024-03-08T09:35:21.189Z,10.00
2024-03-08T09:38:18.184Z,9.80
2024-03-08T09:41:15.054Z,10.00
2024-03-08T09:44:12.673Z,9.80
2024-03-08T09:47:12.168Z,9.50
2024-03-08T09:50:19.093Z,10.80
2024-03-08T09:53:17.820Z,10.90
2024-03-08T09:56:14.841Z,10.70
2024-03-08T09:59:26.601Z,10.50
2024-03-08T10:02:24.290Z,11.10
2024-03-08T10:05:23.110Z,11.40
2024-03-08T10:08:21.314Z,11.40
2024-03-08T10:11:18.866Z,11.60
2024-03-08T10:14:19.474Z,11.10
2024-03-08T10:17:16.765Z,10.80
2024-03-08T10:20:20.337Z,11.00
2024-03-08T10:23:19.035Z,11.20
2024-03-08T10:26:17.681Z,11.40
2024-03-08T10:29:16.872Z,11.00
2024-03-08T10:32:13.922Z,11.30
2024-03-08T10:35:13.065Z,11.30
2024-03-08T10:38:20.495Z,11.80
2024-03-08T10:41:18.602Z,12.00
2024-03-08T10:44:35.672Z,11.30
2024-03-08T10:47:36.919Z,11.70
2024-03-08T10:50:35.644Z,11.50
2024-03-08T10:53:34.983Z,11.40
2024-03-08T10:56:31.842Z,11.50
2024-03-08T10:59:30.343Z,12.00
2024-03-08T11:02:28.545Z,12.20
2024-03-08T11:05:44.631Z,12.40
2024-03-08T11:08:43.404Z,12.60
2024-03-08T11:11:41.725Z,11.50
2024-03-08T11:14:50.047Z,12.00
2024-03-08T11:17:49.885Z,12.60
2024-03-08T11:20:50.349Z,12.60
2024-03-08T11:24:08.894Z,12.40
2024-03-08T11:27:06.247Z,12.70
2024-03-08T11:30:18.868Z,13.70
2024-03-08T11:33:17.277Z,13.50
2024-03-08T11:36:23.070Z,13.30
2024-03-08T11:39:20.633Z,12.80
2024-03-08T11:42:20.829Z,13.00
2024-03-08T11:45:18.838Z,13.20
2024-03-08T11:48:16.278Z,13.40
2024-03-08T11:51:15.806Z,14.20
2024-03-08T11:54:17.091Z,13.90
2024-03-08T11:57:14.124Z,13.90
2024-03-08T12:00:24.955Z,14.00
2024-03-08T12:03:21.834Z,14.20
2024-03-08T12:06:19.315Z,13.60
2024-03-08T12:09:17.672Z,13.80
2024-03-08T12:12:14.726Z,14.10
2024-03-08T12:15:12.598Z,14.20
2024-03-08T12:18:11.736Z,14.00
2024-03-08T12:21:12.121Z,13.80
2024-03-08T12:24:10.673Z,13.50
2024-03-08T12:27:20.878Z,13.60
2024-03-08T12:30:24.708Z,13.30
2024-03-08T12:33:21.720Z,13.20
2024-03-08T12:36:20.999Z,13.40
2024-03-08T12:39:23.504Z,13.60
2024-03-08T12:42:20.382Z,12.90
2024-03-08T12:45:17.347Z,13.00
2024-03-08T12:48:16.409Z,13.60
2024-03-08T12:51:13.674Z,13.20
2024-03-08T12:54:10.633Z,13.00
2024-03-08T12:57:08.881Z,12.90
2024-03-08T13:00:06.616Z,12.50
2024-03-08T13:03:04.130Z,12.70
2024-03-08T13:06:01.206Z,12.90
2024-03-08T13:08:59.320Z,12.60
2024-03-08T13:11:56.341Z,12.50
2024-03-08T13:14:53.391Z,12.80
2024-03-08T13:17:51.190Z,12.60
2024-03-08T13:20:53.045Z,12.30
2024-03-08T13:23:50.638Z,12.00
2024-03-08T13:26:48.494Z,12.60
2024-03-08T13:29:45.339Z,12.30
2024-03-08T13:32:44.585Z,12.50
2024-03-08T13:35:42.511Z,11.90
2024-03-08T13:38:39.531Z,12.30
2024-03-08T13:41:36.439Z,12.40
2024-03-08T13:44:33.296Z,12.30
2024-03-08T13:47:31.544Z,12.20
2024-03-08T13:50:29.314Z,12.00
2024-03-08T13:53:26.719Z,11.90
2024-03-08T13:56:23.590Z,11.60
2024-03-08T13:59:23.579Z,11.60
2024-03-08T14:02:20.582Z,12.10
2024-03-08T14:05:19.020Z,11.70
2024-03-08T14:08:17.324Z,11.80
2024-03-08T14:11:14.666Z,11.90
2024-03-08T14:14:15.293Z,11.80
2024-03-08T14:17:17.964Z,12.00
2024-03-08T14:20:14.861Z,12.30
2024-03-08T14:23:13.889Z,11.70
2024-03-08T14:26:12.385Z,11.60
2024-03-08T14:29:11.083Z,11.60
2024-03-08T14:32:09.485Z,11.20
2024-03-08T14:35:07.058Z,11.40
2024-03-08T14:38:04.301Z,11.50
2024-03-08T14:41:02.331Z,11.00
2024-03-08T14:44:00.669Z,11.10
2024-03-08T14:46:58.003Z,11.30
2024-03-08T14:49:56.684Z,10.90
2024-03-08T14:52:54.068Z,10.40
2024-03-08T14:55:51.986Z,10.60
2024-03-08T14:58:52.774Z,10.50
2024-03-08T15:01:49.653Z,10.10
2024-03-08T15:04:58.767Z,9.90
2024-03-08T15:07:56.555Z,9.90
2024-03-08T15:10:56.814Z,9.90
2024-03-08T15:13:54.684Z,10.10
2024-03-08T15:16:52.263Z,9.60
2024-03-08T15:19:50.169Z,9.80
2024-03-08T15:22:50.189Z,10.00
2024-03-08T15:25:50.048Z,9.90
2024-03-08T15:28:48.760Z,9.70
2024-03-08T15:31:45.701Z,9.80
2024-03-08T15:34:43.900Z,9.80
2024-03-08T15:37:46.329Z,9.40
2024-03-08T15:40:43.298Z,9.40
2024-03-08T15:43:41.831Z,9.20
2024-03-08T15:46:40.803Z,9.10
2024-03-08T15:49:37.783Z,9.00
2024-03-08T15:52:34.816Z,8.90
2024-03-08T15:55:32.494Z,8.70
2024-03-08T15:58:31.150Z,8.80
2024-03-08T16:01:28.900Z,8.80
2024-03-08T16:04:26.299Z,8.60
2024-03-08T16:07:23.205Z,8.50
2024-03-08T16:10:20.607Z,8.60
2024-03-08T16:13:18.456Z,8.60
2024-03-08T16:16:15.360Z,8.40
2024-03-08T16:19:14.991Z,8.50
2024-03-08T16:22:11.860Z,8.20
2024-03-08T16:25:13.384Z,8.30
2024-03-08T16:28:12.017Z,8.30
2024-03-08T16:31:09.641Z,8.10
2024-03-08T16:34:06.630Z,7.90
2024-03-08T16:37:03.766Z,8.10
2024-03-08T16:40:01.620Z,7.90
2024-03-08T16:42:59.705Z,7.80
2024-03-08T16:45:57.435Z,7.70
2024-03-08T16:48:55.606Z,7.50
2024-03-08T16:51:52.559Z,7.40
2024-03-08T16:54:56.960Z,7.40
2024-03-08T16:57:58.279Z,7.30
2024-03-08T17:00:55.151Z,7.20
2024-03-08T17:03:59.925Z,7.20
2024-03-08T17:07:00.326Z,6.90
2024-03-08T17:09:58.842Z,6.70
2024-03-08T17:12:59.713Z,6.60
2024-03-08T17:15:56.828Z,6.60
2024-03-08T17:18:53.728Z,6.40
2024-03-08T17:21:50.576Z,6.40
2024-03-08T17:24:47.481Z,6.30
2024-03-08T17:27:46.890Z,6.10
2024-03-08T17:30:47.261Z,6.10
2024-03-08T17:33:44.204Z,5.90
2024-03-08T17:36:41.791Z,5.60
2024-03-08T17:39:39.480Z,5.40
2024-03-08T17:42:36.398Z,5.30
2024-03-08T17:45:34.166Z,5.20
2024-03-08T17:48:32.751Z,5.00
2024-03-08T17:51:31.254Z,5.00
2024-03-08T17:54:28.099Z,5.00
2024-03-08T17:57:26.385Z,5.00
2024-03-08T18:00:30.264Z,4.90
2024-03-08T18:03:29.109Z,5.10
2024-03-08T18:06:27.310Z,4.80
2024-03-08T18:09:24.550Z,4.60
2024-03-08T18:12:21.390Z,4.60
2024-03-08T18:15:21.497Z,4.60
2024-03-08T18:18:19.190Z,4.50
2024-03-08T18:21:16.863Z,4.40
2024-03-08T18:24:13.793Z,4.30
2024-03-08T18:27:10.641Z,4.40
2024-03-08T18:30:12.688Z,4.40
2024-03-08T18:33:13.201Z,4.30
2024-03-08T18:36:10.552Z,4.50
2024-03-08T18:39:11.539Z,4.50
2024-03-08T18:42:08.389Z,4.50
2024-03-08T18:45:11.818Z,4.30
2024-03-08T18:48:08.859Z,4.10
2024-03-08T18:51:06.618Z,4.00
2024-03-08T18:54:04.809Z,3.80
2024-03-08T18:57:06.099Z,3.90
2024-03-08T19:00:06.472Z,3.90
2024-03-08T19:03:06.469Z,3.80
2024-03-08T19:06:03.603Z,3.80
2024-03-08T19:09:00.735Z,3.70
2024-03-08T19:11:58.131Z,3.60
2024-03-08T19:14:55.058Z,3.50
2024-03-08T19:17:55.746Z,3.70
2024-03-08T19:20:53.087Z,3.50
2024-03-08T19:23:50.123Z,3.40
2024-03-08T19:26:49.818Z,3.40
2024-03-08T19:29:46.889Z,3.40
2024-03-08T19:32:45.483Z,3.40
2024-03-08T19:35:42.804Z,3.20
2024-03-08T19:38:41.476Z,3.10
2024-03-08T19:41:38.435Z,2.90
2024-03-08T19:44:35.535Z,2.70
2024-03-08T19:47:32.398Z,2.80
2024-03-08T19:50:31.374Z,2.80
2024-03-08T19:53:28.228Z,2.90
2024-03-08T19:56:25.147Z,3.00
2024-03-08T19:59:21.980Z,2.80
2024-03-08T20:02:19.148Z,2.90
2024-03-08T20:05:18.841Z,3.10
2024-03-08T20:08:15.860Z,2.90
2024-03-08T20:11:13.075Z,2.70
2024-03-08T20:14:11.665Z,2.70
2024-03-08T20:17:10.165Z,2.60
2024-03-08T20:20:15.490Z,2.70
2024-03-08T20:23:14.120Z,2.60
2024-03-08T20:26:12.581Z,2.50
2024-03-08T20:29:09.861Z,2.30
2024-03-08T20:32:06.913Z,2.40
2024-03-08T20:35:05.045Z,2.40
2024-03-08T20:38:21.097Z,2.20
2024-03-08T20:41:18.037Z,2.20
2024-03-08T20:44:16.755Z,2.10
2024-03-08T20:47:13.732Z,2.10
2024-03-08T20:50:14.618Z,1.90
2024-03-08T20:53:15.600Z,1.90
2024-03-08T20:56:12.792Z,2.10
2024-03-08T20:59:11.364Z,2.10
2024-03-08T21:02:10.145Z,2.10
2024-03-08T21:05:07.996Z,2.30
2024-03-08T21:08:06.371Z,2.10
2024-03-08T21:11:03.543Z,2.00
2024-03-08T21:14:01.300Z,1.90
2024-03-08T21:16:59.109Z,1.80
2024-03-08T21:19:57.662Z,2.00
2024-03-08T21:22:54.610Z,2.00
2024-03-08T21:25:51.693Z,1.90
2024-03-08T21:28:48.730Z,1.90
2024-03-08T21:31:45.680Z,2.10
2024-03-08T21:34:43.110Z,1.90
2024-03-08T21:37:40.391Z,1.60
2024-03-08T21:40:48.570Z,1.50
2024-03-08T21:43:54.241Z,1.50
2024-03-08T21:46:51.188Z,1.40
2024-03-08T21:49:51.881Z,1.40
2024-03-08T21:52:50.192Z,1.30
2024-03-08T21:55:48.802Z,1.30
2024-03-08T21:58:46.049Z,1.30
2024-03-08T22:01:44.568Z,1.40
2024-03-08T22:04:41.524Z,1.30
2024-03-08T22:07:38.811Z,1.30
2024-03-08T22:10:35.706Z,1.30
2024-03-08T22:13:32.767Z,1.10
2024-03-08T22:16:33.947Z,1.00
2024-03-08T22:19:30.917Z,1.20
2024-03-08T22:22:27.777Z,1.10
2024-03-08T22:25:24.814Z,0.90
2024-03-08T22:28:26.994Z,1.00
2024-03-08T22:31:25.703Z,1.00
2024-03-08T22:34:22.632Z,1.00
2024-03-08T22:37:21.062Z,0.90
2024-03-08T22:40:18.275Z,0.80
2024-03-08T22:43:17.679Z,0.80
2024-03-08T22:46:14.955Z,0.80
2024-03-08T22:49:12.793Z,1.00
2024-03-08T22:52:09.728Z,0.80
2024-03-08T22:55:09.546Z,0.90
2024-03-08T22:58:06.433Z,0.90
2024-03-08T23:01:04.681Z,0.90
2024-03-08T23:04:02.017Z,1.00
2024-03-08T23:06:59.311Z,0.90
2024-03-08T23:09:56.561Z,0.80
2024-03-08T23:12:54.101Z,0.70
2024-03-08T23:15:52.397Z,0.60
2024-03-08T23:18:50.350Z,0.40
2024-03-08T23:21:47.432Z,0.40
2024-03-08T23:24:44.649Z,0.50
2024-03-08T23:27:41.511Z,0.50
2024-03-08T23:30:42.527Z,0.70
2024-03-08T23:33:39.647Z,0.60
2024-03-08T23:36:36.541Z,0.60
2024-03-08T23:39:33.399Z,0.40
2024-03-08T23:42:30.251Z,0.40
2024-03-08T23:45:29.051Z,0.60
2024-03-08T23:48:27.299Z,0.60
2024-03-08T23:51:25.791Z,0.60
2024-03-08T23:54:23.587Z,0.50
2024-03-08T23:57:20.839Z,0.30
